sensor_id;sensor_type;location;lat;lon;timestamp;P1;durP1;ratioP1;P2;durP2;ratioP2
68229;SDS011;55048;52.220;5.160;2023-04-03T00:01:23;1.27;;;0.50;;
68229;SDS011;55048;52.220;5.160;2023-04-03T00:03:48;1.65;;;0.50;;
68229;SDS011;55048;52.220;5.160;2023-04-03T00:06:15;3.00;;;0.60;;
68229;SDS011;55048;52.220;5.160;2023-04-03T00:08:40;1.85;;;0.60;;
68229;SDS011;55048;52.220;5.160;2023-04-03T00:11:06;2.45;;;0.70;;
68229;SDS011;55048;52.220;5.160;2023-04-03T00:13:32;4.55;;;0.60;;
68229;SDS011;55048;52.220;5.160;2023-04-03T00:15:57;4.60;;;0.68;;
68229;SDS011;55048;52.220;5.160;2023-04-03T00:18:23;1.77;;;0.55;;
68229;SDS011;55048;52.220;5.160;2023-04-03T00:20:48;1.92;;;0.70;;
68229;SDS011;55048;52.220;5.160;2023-04-03T00:23:14;2.33;;;0.50;;
68229;SDS011;55048;52.220;5.160;2023-04-03T00:25:40;4.55;;;0.60;;
68229;SDS011;55048;52.220;5.160;2023-04-03T00:28:05;0.73;;;0.50;;
68229;SDS011;55048;52.220;5.160;2023-04-03T00:30:31;2.13;;;0.63;;
68229;SDS011;55048;52.220;5.160;2023-04-03T00:32:56;1.23;;;0.57;;
68229;SDS011;55048;52.220;5.160;2023-04-03T00:35:22;2.10;;;0.60;;
68229;SDS011;55048;52.220;5.160;2023-04-03T00:37:53;1.02;;;0.60;;
68229;SDS011;55048;52.220;5.160;2023-04-03T00:40:20;2.30;;;0.60;;
68229;SDS011;55048;52.220;5.160;2023-04-03T00:42:48;1.23;;;0.50;;
68229;SDS011;55048;52.220;5.160;2023-04-03T00:45:33;1.27;;;0.50;;
68229;SDS011;55048;52.220;5.160;2023-04-03T00:47:59;1.65;;;0.50;;
68229;SDS011;55048;52.220;5.160;2023-04-03T00:50:28;1.50;;;0.50;;
68229;SDS011;55048;52.220;5.160;2023-04-03T00:52:55;3.50;;;0.70;;
68229;SDS011;55048;52.220;5.160;2023-04-03T00:55:21;1.88;;;0.50;;
68229;SDS011;55048;52.220;5.160;2023-04-03T00:57:48;2.22;;;0.55;;
68229;SDS011;55048;52.220;5.160;2023-04-03T01:00:17;1.45;;;0.55;;
68229;SDS011;55048;52.220;5.160;2023-04-03T01:02:45;2.65;;;0.60;;
68229;SDS011;55048;52.220;5.160;2023-04-03T01:05:12;2.28;;;0.57;;
68229;SDS011;55048;52.220;5.160;2023-04-03T01:07:41;1.35;;;0.60;;
68229;SDS011;55048;52.220;5.160;2023-04-03T01:10:09;1.15;;;0.52;;
68229;SDS011;55048;52.220;5.160;2023-04-03T01:12:39;1.45;;;0.60;;
68229;SDS011;55048;52.220;5.160;2023-04-03T01:15:08;1.30;;;0.50;;
68229;SDS011;55048;52.220;5.160;2023-04-03T01:17:51;4.82;;;0.70;;
68229;SDS011;55048;52.220;5.160;2023-04-03T01:25:56;2.55;;;0.60;;
68229;SDS011;55048;52.220;5.160;2023-04-03T01:28:23;3.78;;;0.65;;
68229;SDS011;55048;52.220;5.160;2023-04-03T01:30:50;1.88;;;0.60;;
68229;SDS011;55048;52.220;5.160;2023-04-03T01:33:25;3.35;;;0.73;;
68229;SDS011;55048;52.220;5.160;2023-04-03T01:35:50;2.40;;;0.70;;
68229;SDS011;55048;52.220;5.160;2023-04-03T01:38:16;1.90;;;0.60;;
68229;SDS011;55048;52.220;5.160;2023-04-03T01:40:41;0.77;;;0.50;;
68229;SDS011;55048;52.220;5.160;2023-04-03T01:43:07;2.10;;;0.70;;
68229;SDS011;55048;52.220;5.160;2023-04-03T01:45:33;2.38;;;0.63;;
68229;SDS011;55048;52.220;5.160;2023-04-03T01:47:58;6.45;;;0.70;;
68229;SDS011;55048;52.220;5.160;2023-04-03T01:50:25;2.30;;;0.73;;
68229;SDS011;55048;52.220;5.160;2023-04-03T01:52:51;2.05;;;0.70;;
68229;SDS011;55048;52.220;5.160;2023-04-03T01:55:16;2.05;;;0.52;;
68229;SDS011;55048;52.220;5.160;2023-04-03T01:57:42;2.72;;;0.80;;
68229;SDS011;55048;52.220;5.160;2023-04-03T02:00:07;3.20;;;0.80;;
68229;SDS011;55048;52.220;5.160;2023-04-03T02:02:38;1.15;;;0.60;;
68229;SDS011;55048;52.220;5.160;2023-04-03T02:05:03;1.30;;;0.60;;
68229;SDS011;55048;52.220;5.160;2023-04-03T02:07:29;1.42;;;0.60;;
68229;SDS011;55048;52.220;5.160;2023-04-03T02:09:55;3.35;;;0.90;;
68229;SDS011;55048;52.220;5.160;2023-04-03T02:12:20;2.45;;;0.80;;
68229;SDS011;55048;52.220;5.160;2023-04-03T02:14:46;3.60;;;0.60;;
68229;SDS011;55048;52.220;5.160;2023-04-03T02:17:11;2.08;;;0.85;;
68229;SDS011;55048;52.220;5.160;2023-04-03T02:19:37;3.30;;;0.60;;
68229;SDS011;55048;52.220;5.160;2023-04-03T02:22:03;2.92;;;0.80;;
68229;SDS011;55048;52.220;5.160;2023-04-03T02:24:29;2.42;;;0.60;;
68229;SDS011;55048;52.220;5.160;2023-04-03T02:26:54;3.17;;;0.80;;
68229;SDS011;55048;52.220;5.160;2023-04-03T02:29:20;4.50;;;0.80;;
68229;SDS011;55048;52.220;5.160;2023-04-03T02:31:46;3.20;;;0.70;;
68229;SDS011;55048;52.220;5.160;2023-04-03T02:34:12;3.45;;;0.85;;
68229;SDS011;55048;52.220;5.160;2023-04-03T02:36:38;4.22;;;0.80;;
68229;SDS011;55048;52.220;5.160;2023-04-03T02:39:06;5.72;;;0.70;;
68229;SDS011;55048;52.220;5.160;2023-04-03T02:41:34;4.93;;;0.68;;
68229;SDS011;55048;52.220;5.160;2023-04-03T02:44:09;1.50;;;0.60;;
68229;SDS011;55048;52.220;5.160;2023-04-03T02:46:35;3.92;;;0.70;;
68229;SDS011;55048;52.220;5.160;2023-04-03T02:49:02;1.38;;;0.82;;
68229;SDS011;55048;52.220;5.160;2023-04-03T02:51:27;2.92;;;0.60;;
68229;SDS011;55048;52.220;5.160;2023-04-03T02:53:53;2.85;;;0.60;;
68229;SDS011;55048;52.220;5.160;2023-04-03T02:56:23;2.45;;;1.05;;
68229;SDS011;55048;52.220;5.160;2023-04-03T02:58:48;4.63;;;0.80;;
68229;SDS011;55048;52.220;5.160;2023-04-03T03:01:15;3.42;;;0.63;;
68229;SDS011;55048;52.220;5.160;2023-04-03T03:03:40;2.75;;;0.95;;
68229;SDS011;55048;52.220;5.160;2023-04-03T03:06:07;2.30;;;0.80;;
68229;SDS011;55048;52.220;5.160;2023-04-03T03:08:35;3.75;;;0.70;;
68229;SDS011;55048;52.220;5.160;2023-04-03T03:11:02;9.88;;;1.00;;
68229;SDS011;55048;52.220;5.160;2023-04-03T03:13:28;3.05;;;0.75;;
68229;SDS011;55048;52.220;5.160;2023-04-03T03:15:53;3.22;;;0.80;;
68229;SDS011;55048;52.220;5.160;2023-04-03T03:18:19;3.85;;;0.90;;
68229;SDS011;55048;52.220;5.160;2023-04-03T03:20:45;3.65;;;1.00;;
68229;SDS011;55048;52.220;5.160;2023-04-03T03:23:10;2.10;;;0.70;;
68229;SDS011;55048;52.220;5.160;2023-04-03T03:25:39;1.42;;;0.70;;
68229;SDS011;55048;52.220;5.160;2023-04-03T03:28:07;3.67;;;1.00;;
68229;SDS011;55048;52.220;5.160;2023-04-03T03:30:33;3.33;;;1.00;;
68229;SDS011;55048;52.220;5.160;2023-04-03T03:32:59;2.88;;;0.82;;
68229;SDS011;55048;52.220;5.160;2023-04-03T03:35:24;6.80;;;0.95;;
68229;SDS011;55048;52.220;5.160;2023-04-03T03:37:50;3.38;;;0.85;;
68229;SDS011;55048;52.220;5.160;2023-04-03T03:40:16;0.50;;;0.50;;
68229;SDS011;55048;52.220;5.160;2023-04-03T03:42:42;3.75;;;0.90;;
68229;SDS011;55048;52.220;5.160;2023-04-03T03:45:07;4.57;;;0.85;;
68229;SDS011;55048;52.220;5.160;2023-04-03T03:47:34;3.00;;;1.00;;
68229;SDS011;55048;52.220;5.160;2023-04-03T03:49:59;4.93;;;0.90;;
68229;SDS011;55048;52.220;5.160;2023-04-03T03:52:25;3.00;;;0.70;;
68229;SDS011;55048;52.220;5.160;2023-04-03T03:54:51;3.35;;;1.05;;
68229;SDS011;55048;52.220;5.160;2023-04-03T03:57:16;8.02;;;0.95;;
68229;SDS011;55048;52.220;5.160;2023-04-03T03:59:42;2.22;;;0.95;;
68229;SDS011;55048;52.220;5.160;2023-04-03T04:02:09;4.28;;;1.23;;
68229;SDS011;55048;52.220;5.160;2023-04-03T04:04:36;3.22;;;1.00;;
68229;SDS011;55048;52.220;5.160;2023-04-03T04:07:02;2.28;;;0.90;;
68229;SDS011;55048;52.220;5.160;2023-04-03T04:09:30;5.88;;;1.35;;
68229;SDS011;55048;52.220;5.160;2023-04-03T04:11:55;3.38;;;0.80;;
68229;SDS011;55048;52.220;5.160;2023-04-03T04:14:21;7.15;;;1.00;;
68229;SDS011;55048;52.220;5.160;2023-04-03T04:16:48;6.88;;;1.05;;
68229;SDS011;55048;52.220;5.160;2023-04-03T04:19:18;1.60;;;0.82;;
68229;SDS011;55048;52.220;5.160;2023-04-03T04:21:44;1.80;;;1.00;;
68229;SDS011;55048;52.220;5.160;2023-04-03T04:24:11;3.33;;;0.93;;
68229;SDS011;55048;52.220;5.160;2023-04-03T04:26:37;4.68;;;1.10;;
68229;SDS011;55048;52.220;5.160;2023-04-03T04:29:03;4.75;;;0.90;;
68229;SDS011;55048;52.220;5.160;2023-04-03T04:31:32;3.92;;;1.30;;
68229;SDS011;55048;52.220;5.160;2023-04-03T04:33:57;5.57;;;0.88;;
68229;SDS011;55048;52.220;5.160;2023-04-03T04:36:23;5.43;;;1.10;;
68229;SDS011;55048;52.220;5.160;2023-04-03T04:38:48;4.72;;;1.23;;
68229;SDS011;55048;52.220;5.160;2023-04-03T04:41:21;5.85;;;1.02;;
68229;SDS011;55048;52.220;5.160;2023-04-03T04:43:48;5.30;;;1.00;;
68229;SDS011;55048;52.220;5.160;2023-04-03T04:46:14;5.55;;;1.10;;
68229;SDS011;55048;52.220;5.160;2023-04-03T04:48:45;5.18;;;0.98;;
68229;SDS011;55048;52.220;5.160;2023-04-03T04:51:12;5.90;;;1.40;;
68229;SDS011;55048;52.220;5.160;2023-04-03T04:53:38;9.07;;;1.15;;
68229;SDS011;55048;52.220;5.160;2023-04-03T04:56:04;3.13;;;1.20;;
68229;SDS011;55048;52.220;5.160;2023-04-03T04:58:31;3.53;;;0.98;;
68229;SDS011;55048;52.220;5.160;2023-04-03T05:01:03;2.20;;;0.90;;
68229;SDS011;55048;52.220;5.160;2023-04-03T05:03:31;3.97;;;1.13;;
68229;SDS011;55048;52.220;5.160;2023-04-03T05:05:58;4.38;;;1.20;;
68229;SDS011;55048;52.220;5.160;2023-04-03T05:08:24;3.40;;;0.80;;
68229;SDS011;55048;52.220;5.160;2023-04-03T05:10:50;4.85;;;1.00;;
68229;SDS011;55048;52.220;5.160;2023-04-03T05:13:17;3.45;;;1.00;;
68229;SDS011;55048;52.220;5.160;2023-04-03T05:15:43;6.00;;;1.35;;
68229;SDS011;55048;52.220;5.160;2023-04-03T05:18:08;6.13;;;1.00;;
68229;SDS011;55048;52.220;5.160;2023-04-03T05:20:34;3.38;;;1.33;;
68229;SDS011;55048;52.220;5.160;2023-04-03T05:23:00;2.78;;;1.00;;
68229;SDS011;55048;52.220;5.160;2023-04-03T05:25:26;8.48;;;1.00;;
68229;SDS011;55048;52.220;5.160;2023-04-03T05:27:51;2.63;;;1.17;;
68229;SDS011;55048;52.220;5.160;2023-04-03T05:30:17;2.30;;;1.00;;
68229;SDS011;55048;52.220;5.160;2023-04-03T05:32:43;6.38;;;1.23;;
68229;SDS011;55048;52.220;5.160;2023-04-03T05:35:17;6.32;;;1.17;;
68229;SDS011;55048;52.220;5.160;2023-04-03T05:37:45;3.53;;;1.08;;
68229;SDS011;55048;52.220;5.160;2023-04-03T05:40:11;6.40;;;1.50;;
68229;SDS011;55048;52.220;5.160;2023-04-03T05:42:40;5.87;;;1.40;;
68229;SDS011;55048;52.220;5.160;2023-04-03T05:45:06;5.05;;;1.60;;
68229;SDS011;55048;52.220;5.160;2023-04-03T05:47:32;9.73;;;1.30;;
68229;SDS011;55048;52.220;5.160;2023-04-03T05:49:58;7.93;;;1.60;;
68229;SDS011;55048;52.220;5.160;2023-04-03T05:52:25;5.07;;;1.30;;
68229;SDS011;55048;52.220;5.160;2023-04-03T05:54:53;8.57;;;1.10;;
68229;SDS011;55048;52.220;5.160;2023-04-03T05:57:24;4.18;;;1.38;;
68229;SDS011;55048;52.220;5.160;2023-04-03T05:59:50;5.65;;;1.02;;
68229;SDS011;55048;52.220;5.160;2023-04-03T06:02:17;2.30;;;1.20;;
68229;SDS011;55048;52.220;5.160;2023-04-03T06:04:45;4.07;;;1.00;;
68229;SDS011;55048;52.220;5.160;2023-04-03T06:07:22;3.65;;;0.82;;
68229;SDS011;55048;52.220;5.160;2023-04-03T06:09:52;8.65;;;1.58;;
68229;SDS011;55048;52.220;5.160;2023-04-03T06:12:18;4.10;;;1.10;;
68229;SDS011;55048;52.220;5.160;2023-04-03T06:14:44;4.10;;;1.63;;
68229;SDS011;55048;52.220;5.160;2023-04-03T06:17:10;3.65;;;1.20;;
68229;SDS011;55048;52.220;5.160;2023-04-03T06:19:36;4.80;;;1.08;;
68229;SDS011;55048;52.220;5.160;2023-04-03T06:22:01;3.13;;;1.17;;
68229;SDS011;55048;52.220;5.160;2023-04-03T06:24:28;2.45;;;1.10;;
68229;SDS011;55048;52.220;5.160;2023-04-03T06:26:55;3.30;;;1.10;;
68229;SDS011;55048;52.220;5.160;2023-04-03T06:29:21;6.30;;;1.17;;
68229;SDS011;55048;52.220;5.160;2023-04-03T06:31:47;7.55;;;1.20;;
68229;SDS011;55048;52.220;5.160;2023-04-03T06:34:13;4.53;;;1.17;;
68229;SDS011;55048;52.220;5.160;2023-04-03T06:36:40;3.00;;;0.82;;
68229;SDS011;55048;52.220;5.160;2023-04-03T06:39:07;3.38;;;0.98;;
68229;SDS011;55048;52.220;5.160;2023-04-03T06:41:36;3.00;;;0.90;;
68229;SDS011;55048;52.220;5.160;2023-04-03T06:44:01;6.22;;;1.05;;
68229;SDS011;55048;52.220;5.160;2023-04-03T06:46:28;5.50;;;1.13;;
68229;SDS011;55048;52.220;5.160;2023-04-03T06:48:54;5.40;;;1.38;;
68229;SDS011;55048;52.220;5.160;2023-04-03T06:51:24;2.42;;;0.90;;
68229;SDS011;55048;52.220;5.160;2023-04-03T06:53:52;2.67;;;1.10;;
68229;SDS011;55048;52.220;5.160;2023-04-03T06:56:19;3.42;;;0.75;;
68229;SDS011;55048;52.220;5.160;2023-04-03T06:58:45;4.00;;;1.10;;
68229;SDS011;55048;52.220;5.160;2023-04-03T07:01:11;4.57;;;1.08;;
68229;SDS011;55048;52.220;5.160;2023-04-03T07:03:39;5.03;;;1.02;;
68229;SDS011;55048;52.220;5.160;2023-04-03T07:06:06;5.45;;;1.00;;
68229;SDS011;55048;52.220;5.160;2023-04-03T07:08:34;3.55;;;1.27;;
68229;SDS011;55048;52.220;5.160;2023-04-03T07:11:00;7.32;;;1.30;;
68229;SDS011;55048;52.220;5.160;2023-04-03T07:13:26;4.00;;;0.70;;
68229;SDS011;55048;52.220;5.160;2023-04-03T07:15:51;7.47;;;1.45;;
68229;SDS011;55048;52.220;5.160;2023-04-03T07:18:17;2.58;;;0.82;;
68229;SDS011;55048;52.220;5.160;2023-04-03T07:20:43;5.32;;;0.80;;
68229;SDS011;55048;52.220;5.160;2023-04-03T07:23:09;3.92;;;0.80;;
68229;SDS011;55048;52.220;5.160;2023-04-03T07:25:34;6.22;;;1.10;;
68229;SDS011;55048;52.220;5.160;2023-04-03T07:28:00;2.55;;;0.90;;
68229;SDS011;55048;52.220;5.160;2023-04-03T07:30:25;6.05;;;0.98;;
68229;SDS011;55048;52.220;5.160;2023-04-03T07:32:51;2.53;;;0.90;;
68229;SDS011;55048;52.220;5.160;2023-04-03T07:35:17;2.70;;;0.70;;
68229;SDS011;55048;52.220;5.160;2023-04-03T07:37:42;7.53;;;1.00;;
68229;SDS011;55048;52.220;5.160;2023-04-03T07:40:08;4.13;;;0.95;;
68229;SDS011;55048;52.220;5.160;2023-04-03T07:42:34;1.33;;;0.80;;
68229;SDS011;55048;52.220;5.160;2023-04-03T07:45:00;3.60;;;0.80;;
68229;SDS011;55048;52.220;5.160;2023-04-03T07:47:27;2.65;;;0.80;;
68229;SDS011;55048;52.220;5.160;2023-04-03T07:49:52;4.70;;;0.90;;
68229;SDS011;55048;52.220;5.160;2023-04-03T07:52:18;4.45;;;1.00;;
68229;SDS011;55048;52.220;5.160;2023-04-03T07:54:43;2.55;;;0.70;;
68229;SDS011;55048;52.220;5.160;2023-04-03T07:57:09;6.53;;;1.10;;
68229;SDS011;55048;52.220;5.160;2023-04-03T07:59:34;6.13;;;1.00;;
68229;SDS011;55048;52.220;5.160;2023-04-03T08:02:00;5.45;;;0.90;;
68229;SDS011;55048;52.220;5.160;2023-04-03T08:04:25;4.20;;;0.75;;
68229;SDS011;55048;52.220;5.160;2023-04-03T08:06:52;2.33;;;0.80;;
68229;SDS011;55048;52.220;5.160;2023-04-03T08:09:17;1.95;;;0.98;;
68229;SDS011;55048;52.220;5.160;2023-04-03T08:11:44;4.25;;;0.70;;
68229;SDS011;55048;52.220;5.160;2023-04-03T08:14:10;3.65;;;0.80;;
68229;SDS011;55048;52.220;5.160;2023-04-03T08:16:41;4.70;;;1.02;;
68229;SDS011;55048;52.220;5.160;2023-04-03T08:19:07;2.30;;;0.80;;
68229;SDS011;55048;52.220;5.160;2023-04-03T08:21:33;3.00;;;0.70;;
68229;SDS011;55048;52.220;5.160;2023-04-03T08:23:58;2.65;;;0.88;;
68229;SDS011;55048;52.220;5.160;2023-04-03T08:26:24;6.78;;;1.35;;
68229;SDS011;55048;52.220;5.160;2023-04-03T08:28:51;3.45;;;0.80;;
68229;SDS011;55048;52.220;5.160;2023-04-03T08:31:18;3.38;;;0.70;;
68229;SDS011;55048;52.220;5.160;2023-04-03T08:33:44;3.30;;;0.82;;
68229;SDS011;55048;52.220;5.160;2023-04-03T08:36:18;4.25;;;0.60;;
68229;SDS011;55048;52.220;5.160;2023-04-03T08:38:49;4.75;;;0.90;;
68229;SDS011;55048;52.220;5.160;2023-04-03T08:44:02;1.70;;;0.50;;
68229;SDS011;55048;52.220;5.160;2023-04-03T08:46:35;6.85;;;0.50;;
68229;SDS011;55048;52.220;5.160;2023-04-03T08:49:09;3.92;;;0.90;;
68229;SDS011;55048;52.220;5.160;2023-04-03T08:51:42;1.42;;;0.50;;
68229;SDS011;55048;52.220;5.160;2023-04-03T08:54:20;3.97;;;0.60;;
68229;SDS011;55048;52.220;5.160;2023-04-03T08:56:55;2.63;;;0.60;;
68229;SDS011;55048;52.220;5.160;2023-04-03T08:59:29;2.33;;;0.80;;
68229;SDS011;55048;52.220;5.160;2023-04-03T09:01:59;1.75;;;0.60;;
68229;SDS011;55048;52.220;5.160;2023-04-03T09:04:30;2.20;;;0.60;;
68229;SDS011;55048;52.220;5.160;2023-04-03T09:07:09;0.85;;;0.45;;
68229;SDS011;55048;52.220;5.160;2023-04-03T09:09:45;2.17;;;0.52;;
68229;SDS011;55048;52.220;5.160;2023-04-03T09:12:24;0.88;;;0.40;;
68229;SDS011;55048;52.220;5.160;2023-04-03T09:23:49;0.60;;;0.30;;
68229;SDS011;55048;52.220;5.160;2023-04-03T09:26:21;0.85;;;0.30;;
68229;SDS011;55048;52.220;5.160;2023-04-03T09:28:58;2.03;;;0.50;;
68229;SDS011;55048;52.220;5.160;2023-04-03T09:31:27;1.15;;;0.40;;
68229;SDS011;55048;52.220;5.160;2023-04-03T09:34:01;1.23;;;0.47;;
68229;SDS011;55048;52.220;5.160;2023-04-03T09:39:13;0.55;;;0.30;;
68229;SDS011;55048;52.220;5.160;2023-04-03T09:42:21;2.95;;;0.40;;
68229;SDS011;55048;52.220;5.160;2023-04-03T09:44:56;1.05;;;0.40;;
68229;SDS011;55048;52.220;5.160;2023-04-03T09:47:30;1.08;;;0.40;;
68229;SDS011;55048;52.220;5.160;2023-04-03T09:52:44;1.75;;;0.50;;
68229;SDS011;55048;52.220;5.160;2023-04-03T09:57:42;1.48;;;0.47;;
68229;SDS011;55048;52.220;5.160;2023-04-03T10:00:23;1.40;;;0.52;;
68229;SDS011;55048;52.220;5.160;2023-04-03T10:02:49;5.03;;;1.85;;
68229;SDS011;55048;52.220;5.160;2023-04-03T10:05:36;1.15;;;0.30;;
68229;SDS011;55048;52.220;5.160;2023-04-03T10:10:38;1.75;;;0.40;;
68229;SDS011;55048;52.220;5.160;2023-04-03T10:13:12;0.88;;;0.30;;
68229;SDS011;55048;52.220;5.160;2023-04-03T10:15:53;0.32;;;0.20;;
68229;SDS011;55048;52.220;5.160;2023-04-03T10:20:54;0.70;;;0.20;;
68229;SDS011;55048;52.220;5.160;2023-04-03T10:23:33;1.50;;;0.10;;
68229;SDS011;55048;52.220;5.160;2023-04-03T10:26:39;3.40;;;0.10;;
68229;SDS011;55048;52.220;5.160;2023-04-03T10:29:36;1.10;;;0.17;;
68229;SDS011;55048;52.220;5.160;2023-04-03T10:32:20;1.02;;;0.20;;
68229;SDS011;55048;52.220;5.160;2023-04-03T10:35:02;0.50;;;0.20;;
68229;SDS011;55048;52.220;5.160;2023-04-03T10:37:43;0.82;;;0.30;;
68229;SDS011;55048;52.220;5.160;2023-04-03T10:40:47;1.15;;;0.30;;
68229;SDS011;55048;52.220;5.160;2023-04-03T10:54:21;2.95;;;0.40;;
68229;SDS011;55048;52.220;5.160;2023-04-03T10:56:50;1.08;;;0.20;;
68229;SDS011;55048;52.220;5.160;2023-04-03T10:59:23;1.08;;;0.35;;
68229;SDS011;55048;52.220;5.160;2023-04-03T11:01:59;0.25;;;0.15;;
68229;SDS011;55048;52.220;5.160;2023-04-03T11:04:27;1.30;;;0.20;;
68229;SDS011;55048;52.220;5.160;2023-04-03T11:07:02;0.80;;;0.20;;
68229;SDS011;55048;52.220;5.160;2023-04-03T11:09:34;1.33;;;0.32;;
68229;SDS011;55048;52.220;5.160;2023-04-03T11:12:23;1.45;;;0.30;;
68229;SDS011;55048;52.220;5.160;2023-04-03T11:14:52;1.63;;;0.28;;
68229;SDS011;55048;52.220;5.160;2023-04-03T11:20:00;0.93;;;0.30;;
68229;SDS011;55048;52.220;5.160;2023-04-03T11:22:32;1.58;;;0.20;;
68229;SDS011;55048;52.220;5.160;2023-04-03T11:27:42;1.05;;;0.30;;
68229;SDS011;55048;52.220;5.160;2023-04-03T11:30:18;1.75;;;0.30;;
68229;SDS011;55048;52.220;5.160;2023-04-03T11:35:29;2.47;;;0.30;;
68229;SDS011;55048;52.220;5.160;2023-04-03T11:37:56;0.35;;;0.20;;
68229;SDS011;55048;52.220;5.160;2023-04-03T11:40:28;0.80;;;0.25;;
68229;SDS011;55048;52.220;5.160;2023-04-03T11:51:01;0.60;;;0.20;;
68229;SDS011;55048;52.220;5.160;2023-04-03T11:53:47;1.77;;;0.20;;
68229;SDS011;55048;52.220;5.160;2023-04-03T11:56:26;1.98;;;0.30;;
68229;SDS011;55048;52.220;5.160;2023-04-03T11:59:19;0.98;;;0.22;;
68229;SDS011;55048;52.220;5.160;2023-04-03T12:04:23;1.08;;;0.20;;
68229;SDS011;55048;52.220;5.160;2023-04-03T12:07:11;4.03;;;0.30;;
68229;SDS011;55048;52.220;5.160;2023-04-03T12:15:23;1.45;;;0.30;;
68229;SDS011;55048;52.220;5.160;2023-04-03T12:17:49;0.73;;;0.30;;
68229;SDS011;55048;52.220;5.160;2023-04-03T12:23:26;0.93;;;0.30;;
68229;SDS011;55048;52.220;5.160;2023-04-03T12:25:59;1.15;;;0.35;;
68229;SDS011;55048;52.220;5.160;2023-04-03T12:28:29;1.20;;;0.20;;
68229;SDS011;55048;52.220;5.160;2023-04-03T12:30:54;1.27;;;0.22;;
68229;SDS011;55048;52.220;5.160;2023-04-03T12:33:26;1.13;;;0.40;;
68229;SDS011;55048;52.220;5.160;2023-04-03T12:38:41;1.13;;;0.30;;
68229;SDS011;55048;52.220;5.160;2023-04-03T12:43:54;2.05;;;0.20;;
68229;SDS011;55048;52.220;5.160;2023-04-03T12:46:22;2.63;;;0.30;;
68229;SDS011;55048;52.220;5.160;2023-04-03T12:51:18;0.77;;;0.30;;
68229;SDS011;55048;52.220;5.160;2023-04-03T12:54:03;1.30;;;0.30;;
68229;SDS011;55048;52.220;5.160;2023-04-03T12:56:39;1.65;;;0.30;;
68229;SDS011;55048;52.220;5.160;2023-04-03T12:59:16;2.55;;;0.40;;
68229;SDS011;55048;52.220;5.160;2023-04-03T13:01:59;6.65;;;0.38;;
68229;SDS011;55048;52.220;5.160;2023-04-03T13:04:30;2.80;;;0.40;;
68229;SDS011;55048;52.220;5.160;2023-04-03T13:06:56;3.00;;;0.40;;
68229;SDS011;55048;52.220;5.160;2023-04-03T13:09:23;2.38;;;0.30;;
68229;SDS011;55048;52.220;5.160;2023-04-03T13:11:54;1.50;;;0.50;;
68229;SDS011;55048;52.220;5.160;2023-04-03T13:14:25;1.58;;;0.43;;
68229;SDS011;55048;52.220;5.160;2023-04-03T13:19:19;1.88;;;0.30;;
68229;SDS011;55048;52.220;5.160;2023-04-03T13:21:45;2.35;;;0.40;;
68229;SDS011;55048;52.220;5.160;2023-04-03T13:24:11;1.13;;;0.40;;
68229;SDS011;55048;52.220;5.160;2023-04-03T13:26:37;1.15;;;0.30;;
68229;SDS011;55048;52.220;5.160;2023-04-03T13:29:14;1.55;;;0.30;;
68229;SDS011;55048;52.220;5.160;2023-04-03T13:31:46;3.70;;;0.30;;
68229;SDS011;55048;52.220;5.160;2023-04-03T13:34:12;3.28;;;0.30;;
68229;SDS011;55048;52.220;5.160;2023-04-03T13:36:46;0.85;;;0.30;;
68229;SDS011;55048;52.220;5.160;2023-04-03T13:39:24;2.10;;;0.45;;
68229;SDS011;55048;52.220;5.160;2023-04-03T13:41:56;1.80;;;0.30;;
68229;SDS011;55048;52.220;5.160;2023-04-03T13:44:46;1.75;;;0.30;;
68229;SDS011;55048;52.220;5.160;2023-04-03T13:47:17;3.08;;;0.40;;
68229;SDS011;55048;52.220;5.160;2023-04-03T13:50:32;3.60;;;1.30;;
68229;SDS011;55048;52.220;5.160;2023-04-03T13:52:43;1.13;;;0.43;;
68229;SDS011;55048;52.220;5.160;2023-04-03T13:55:26;1.63;;;0.43;;
68229;SDS011;55048;52.220;5.160;2023-04-03T13:57:59;1.70;;;0.30;;
68229;SDS011;55048;52.220;5.160;2023-04-03T14:02:54;0.90;;;0.40;;
68229;SDS011;55048;52.220;5.160;2023-04-03T14:05:21;1.00;;;0.38;;
68229;SDS011;55048;52.220;5.160;2023-04-03T14:07:50;0.60;;;0.30;;
68229;SDS011;55048;52.220;5.160;2023-04-03T14:10:15;0.73;;;0.32;;
68229;SDS011;55048;52.220;5.160;2023-04-03T14:12:41;1.42;;;0.60;;
68229;SDS011;55048;52.220;5.160;2023-04-03T14:15:12;2.13;;;0.40;;
68229;SDS011;55048;52.220;5.160;2023-04-03T14:17:43;1.48;;;0.50;;
68229;SDS011;55048;52.220;5.160;2023-04-03T14:20:16;1.88;;;0.32;;
68229;SDS011;55048;52.220;5.160;2023-04-03T14:22:42;3.83;;;0.55;;
68229;SDS011;55048;52.220;5.160;2023-04-03T14:25:08;2.13;;;0.30;;
68229;SDS011;55048;52.220;5.160;2023-04-03T14:27:39;0.95;;;0.45;;
68229;SDS011;55048;52.220;5.160;2023-04-03T14:30:07;1.55;;;0.32;;
68229;SDS011;55048;52.220;5.160;2023-04-03T14:32:37;1.00;;;0.40;;
68229;SDS011;55048;52.220;5.160;2023-04-03T14:35:03;0.70;;;0.40;;
68229;SDS011;55048;52.220;5.160;2023-04-03T14:37:29;2.05;;;0.40;;
68229;SDS011;55048;52.220;5.160;2023-04-03T14:39:56;1.90;;;0.50;;
68229;SDS011;55048;52.220;5.160;2023-04-03T14:42:25;1.30;;;0.47;;
68229;SDS011;55048;52.220;5.160;2023-04-03T14:44:56;2.95;;;0.30;;
68229;SDS011;55048;52.220;5.160;2023-04-03T14:47:24;3.42;;;0.50;;
68229;SDS011;55048;52.220;5.160;2023-04-03T14:49:52;0.68;;;0.30;;
68229;SDS011;55048;52.220;5.160;2023-04-03T14:52:22;1.10;;;0.38;;
68229;SDS011;55048;52.220;5.160;2023-04-03T14:54:50;3.00;;;0.60;;
68229;SDS011;55048;52.220;5.160;2023-04-03T14:57:16;2.67;;;0.50;;
68229;SDS011;55048;52.220;5.160;2023-04-03T14:59:43;1.35;;;0.57;;
68229;SDS011;55048;52.220;5.160;2023-04-03T15:04:58;0.28;;;0.20;;
68229;SDS011;55048;52.220;5.160;2023-04-03T15:07:26;2.30;;;0.40;;
68229;SDS011;55048;52.220;5.160;2023-04-03T15:09:53;3.10;;;0.50;;
68229;SDS011;55048;52.220;5.160;2023-04-03T15:12:21;1.73;;;0.70;;
68229;SDS011;55048;52.220;5.160;2023-04-03T15:14:47;1.73;;;0.43;;
68229;SDS011;55048;52.220;5.160;2023-04-03T15:17:17;2.05;;;0.40;;
68229;SDS011;55048;52.220;5.160;2023-04-03T15:19:46;1.85;;;0.40;;
68229;SDS011;55048;52.220;5.160;2023-04-03T15:22:16;2.90;;;0.50;;
68229;SDS011;55048;52.220;5.160;2023-04-03T15:24:43;2.63;;;0.40;;
68229;SDS011;55048;52.220;5.160;2023-04-03T15:27:09;3.90;;;0.50;;
68229;SDS011;55048;52.220;5.160;2023-04-03T15:29:37;2.83;;;0.60;;
68229;SDS011;55048;52.220;5.160;2023-04-03T15:32:04;1.52;;;0.30;;
68229;SDS011;55048;52.220;5.160;2023-04-03T15:34:30;1.17;;;0.40;;
68229;SDS011;55048;52.220;5.160;2023-04-03T15:36:56;1.00;;;0.40;;
68229;SDS011;55048;52.220;5.160;2023-04-03T15:39:21;2.20;;;0.40;;
68229;SDS011;55048;52.220;5.160;2023-04-03T15:41:48;1.08;;;0.50;;
68229;SDS011;55048;52.220;5.160;2023-04-03T15:44:14;1.70;;;0.60;;
68229;SDS011;55048;52.220;5.160;2023-04-03T15:46:42;1.15;;;0.40;;
68229;SDS011;55048;52.220;5.160;2023-04-03T15:49:08;3.60;;;0.82;;
68229;SDS011;55048;52.220;5.160;2023-04-03T15:51:33;6.32;;;0.60;;
68229;SDS011;55048;52.220;5.160;2023-04-03T15:54:00;1.67;;;0.60;;
68229;SDS011;55048;52.220;5.160;2023-04-03T15:56:25;1.98;;;0.52;;
68229;SDS011;55048;52.220;5.160;2023-04-03T15:58:51;3.78;;;0.50;;
68229;SDS011;55048;52.220;5.160;2023-04-03T16:01:16;1.35;;;0.40;;
68229;SDS011;55048;52.220;5.160;2023-04-03T16:03:42;5.30;;;0.40;;
68229;SDS011;55048;52.220;5.160;2023-04-03T16:06:16;4.65;;;0.60;;
68229;SDS011;55048;52.220;5.160;2023-04-03T16:08:43;1.20;;;0.40;;
68229;SDS011;55048;52.220;5.160;2023-04-03T16:11:08;1.27;;;0.60;;
68229;SDS011;55048;52.220;5.160;2023-04-03T16:13:34;3.08;;;0.60;;
68229;SDS011;55048;52.220;5.160;2023-04-03T16:16:00;1.50;;;0.50;;
68229;SDS011;55048;52.220;5.160;2023-04-03T16:18:27;0.95;;;0.40;;
68229;SDS011;55048;52.220;5.160;2023-04-03T16:20:53;0.88;;;0.45;;
68229;SDS011;55048;52.220;5.160;2023-04-03T16:23:19;4.03;;;0.40;;